createdAt,value
2022-12-05T00:00:43.694Z,3.59
2022-12-05T00:01:47.164Z,3.57
2022-12-05T00:02:50.904Z,3.56
2022-12-05T00:03:57.542Z,3.59
2022-12-05T00:05:01.333Z,3.57
2022-12-05T00:06:05.313Z,3.55
2022-12-05T00:07:08.805Z,3.60
2022-12-05T00:08:12.650Z,3.55
2022-12-05T00:09:16.293Z,3.55
2022-12-05T00:10:20.701Z,3.57
2022-12-05T00:11:28.883Z,3.51
2022-12-05T00:12:32.993Z,3.51
2022-12-05T00:13:36.944Z,3.54
2022-12-05T00:14:40.584Z,3.46
2022-12-05T00:15:44.096Z,3.48
2022-12-05T00:16:47.672Z,3.45
2022-12-05T00:17:51.186Z,3.44
2022-12-05T00:18:55.297Z,3.45
2022-12-05T00:19:59.281Z,3.45
2022-12-05T00:21:04.044Z,3.45
2022-12-05T00:22:07.485Z,3.50
2022-12-05T00:23:10.941Z,3.45
2022-12-05T00:24:16.688Z,3.43
2022-12-05T00:25:20.289Z,3.44
2022-12-05T00:26:24.531Z,3.47
2022-12-05T00:27:27.976Z,3.48
2022-12-05T00:28:33.472Z,3.48
2022-12-05T00:29:37.406Z,3.43
2022-12-05T00:30:41.453Z,3.46
2022-12-05T00:31:45.104Z,3.48
2022-12-05T00:32:48.540Z,3.42
2022-12-05T00:33:53.566Z,3.44
2022-12-05T00:34:57.209Z,3.42
2022-12-05T00:36:14.341Z,3.42
2022-12-05T00:37:17.758Z,3.48
2022-12-05T00:38:21.197Z,3.48
2022-12-05T00:39:24.697Z,3.47
2022-12-05T00:40:28.197Z,3.47
2022-12-05T00:41:31.993Z,3.46
2022-12-05T00:42:35.407Z,3.45
2022-12-05T00:43:39.212Z,3.51
2022-12-05T00:44:42.786Z,3.50
2022-12-05T00:45:46.460Z,3.54
2022-12-05T00:46:50.686Z,3.47
2022-12-05T00:47:54.244Z,3.50
2022-12-05T00:48:59.658Z,3.56
2022-12-05T00:50:05.858Z,3.53
2022-12-05T00:51:20.912Z,3.53
2022-12-05T00:52:24.740Z,3.56
2022-12-05T00:53:28.078Z,3.56
2022-12-05T00:54:31.476Z,3.60
2022-12-05T00:55:37.955Z,3.62
2022-12-05T00:56:42.911Z,3.65
2022-12-05T00:57:46.379Z,3.64
2022-12-05T00:58:55.743Z,3.67
2022-12-05T00:59:59.339Z,3.68
2022-12-05T01:01:12.653Z,3.69
2022-12-05T01:02:16.940Z,3.71
2022-12-05T01:03:20.638Z,3.68
2022-12-05T01:04:25.824Z,3.68
2022-12-05T01:05:29.165Z,3.65
2022-12-05T01:06:33.697Z,3.54
2022-12-05T01:07:38.637Z,3.54
2022-12-05T01:08:43.432Z,3.60
2022-12-05T01:09:46.994Z,3.64
2022-12-05T01:10:56.607Z,3.59
2022-12-05T01:12:00.263Z,3.57
2022-12-05T01:13:03.830Z,3.56
2022-12-05T01:14:07.507Z,3.54
2022-12-05T01:15:11.334Z,3.51
2022-12-05T01:16:32.582Z,3.55
2022-12-05T01:17:36.878Z,3.54
2022-12-05T01:18:40.995Z,3.49
2022-12-05T01:19:44.539Z,3.51
2022-12-05T01:20:49.381Z,3.53
2022-12-05T01:21:54.180Z,3.55
2022-12-05T01:22:57.556Z,3.60
2022-12-05T01:24:01.069Z,3.59
2022-12-05T01:25:05.459Z,3.56
2022-12-05T01:26:12.842Z,3.53
2022-12-05T01:27:16.365Z,3.56
2022-12-05T01:28:21.350Z,3.59
2022-12-05T01:29:28.044Z,3.51
2022-12-05T01:30:31.630Z,3.53
2022-12-05T01:31:37.818Z,3.49
2022-12-05T01:32:41.344Z,3.46
2022-12-05T01:33:44.933Z,3.49
2022-12-05T01:34:51.800Z,3.45
2022-12-05T01:35:55.699Z,3.45
2022-12-05T01:36:59.317Z,3.43
2022-12-05T01:38:03.584Z,3.43
2022-12-05T01:39:09.673Z,3.44
2022-12-05T01:40:13.239Z,3.46
2022-12-05T01:41:34.224Z,3.47
2022-12-05T01:42:39.870Z,3.42
2022-12-05T01:44:03.567Z,3.44
2022-12-05T01:45:18.498Z,3.39
2022-12-05T01:46:22.546Z,3.40
2022-12-05T01:47:29.653Z,3.36
2022-12-05T01:48:36.622Z,3.35
2022-12-05T01:49:43.235Z,3.27
2022-12-05T01:50:51.220Z,3.25
2022-12-05T01:52:00.660Z,3.27
2022-12-05T01:53:05.702Z,3.24
2022-12-05T01:54:10.868Z,3.30
2022-12-05T01:55:17.723Z,3.29
2022-12-05T01:56:21.975Z,3.33
2022-12-05T01:57:26.191Z,3.33
2022-12-05T01:58:38.246Z,3.34
2022-12-05T01:59:49.533Z,3.34
2022-12-05T02:00:53.002Z,3.32
2022-12-05T02:01:56.710Z,3.35
2022-12-05T02:03:11.297Z,3.38
2022-12-05T02:04:15.444Z,3.36
2022-12-05T02:05:27.186Z,3.37
2022-12-05T02:06:32.859Z,3.41
2022-12-05T02:07:41.330Z,3.45
2022-12-05T02:08:47.071Z,3.41
2022-12-05T02:09:58.297Z,3.39
2022-12-05T02:11:02.339Z,3.39
2022-12-05T02:12:06.543Z,3.37
2022-12-05T02:13:28.387Z,3.35
2022-12-05T02:14:59.607Z,3.27
2022-12-05T02:16:23.684Z,3.26
2022-12-05T02:17:56.402Z,3.24
2022-12-05T02:20:17.898Z,3.31
2022-12-05T02:21:41.786Z,3.37
2022-12-05T02:23:43.466Z,3.37
2022-12-05T02:25:18.874Z,3.42
2022-12-05T02:26:57.806Z,3.39
2022-12-05T02:29:28.145Z,3.38
2022-12-05T02:30:27.397Z,3.35
2022-12-05T02:31:52.815Z,3.41
2022-12-05T02:33:20.861Z,3.44
2022-12-05T02:35:03.506Z,3.47
2022-12-05T02:36:11.199Z,3.47
2022-12-05T02:38:22.443Z,3.49
2022-12-05T02:39:31.290Z,3.45
2022-12-05T02:41:22.076Z,3.44
2022-12-05T02:42:33.031Z,3.48
2022-12-05T02:44:02.542Z,3.43
2022-12-05T02:45:12.680Z,3.48
2022-12-05T02:46:22.625Z,3.47
2022-12-05T02:47:36.184Z,3.48
2022-12-05T02:48:46.553Z,3.41
2022-12-05T02:49:56.889Z,3.40
2022-12-05T02:51:04.984Z,3.43
2022-12-05T02:52:17.543Z,3.44
2022-12-05T02:53:30.917Z,3.48
2022-12-05T02:54:48.170Z,3.46
2022-12-05T02:55:53.618Z,3.47
2022-12-05T02:57:03.346Z,3.49
2022-12-05T02:58:28.799Z,3.50
2022-12-05T02:59:34.828Z,3.50
2022-12-05T03:00:48.612Z,3.53
2022-12-05T04:04:11.313Z,3.17
2022-12-05T04:05:21.235Z,3.23
2022-12-05T04:06:36.101Z,3.26
2022-12-05T04:07:43.621Z,3.25
2022-12-05T04:09:19.428Z,3.27
2022-12-05T04:10:29.903Z,3.36
2022-12-05T04:11:40.768Z,3.40
2022-12-05T04:12:46.945Z,3.44
2022-12-05T04:14:07.416Z,3.48
2022-12-05T04:15:24.158Z,3.52
2022-12-05T04:17:04.731Z,3.56
2022-12-05T04:18:13.594Z,3.58
2022-12-05T04:20:27.891Z,3.59
2022-12-05T04:21:46.233Z,3.62
2022-12-05T04:22:52.650Z,3.60
2022-12-05T04:24:17.479Z,3.60
2022-12-05T04:25:37.436Z,3.63
2022-12-05T04:26:53.496Z,3.58
2022-12-05T04:28:34.159Z,3.60
2022-12-05T04:30:13.585Z,3.54
2022-12-05T04:31:34.756Z,3.54
2022-12-05T04:32:55.408Z,3.55
2022-12-05T04:34:10.288Z,3.56
2022-12-05T04:35:54.703Z,3.53
2022-12-05T04:37:20.213Z,3.49
2022-12-05T04:38:47.189Z,3.52
2022-12-05T04:40:11.720Z,3.53
2022-12-05T04:41:36.939Z,3.56
2022-12-05T04:42:43.578Z,3.58
2022-12-05T04:43:54.050Z,3.62
2022-12-05T04:45:10.486Z,3.63
2022-12-05T04:46:20.610Z,3.66
2022-12-05T04:47:32.246Z,3.68
2022-12-05T04:48:43.610Z,3.67
2022-12-05T04:49:53.577Z,3.71
2022-12-05T04:51:03.461Z,3.72
2022-12-05T04:52:12.950Z,3.72
2022-12-05T04:53:20.620Z,3.74
2022-12-05T04:54:41.417Z,3.75
2022-12-05T04:55:50.653Z,3.71
2022-12-05T04:57:12.765Z,3.74
2022-12-05T04:58:25.768Z,3.74
2022-12-05T04:59:30.993Z,3.75
2022-12-05T05:01:13.506Z,3.75
2022-12-05T05:02:36.884Z,3.73
2022-12-05T05:03:54.344Z,3.75
2022-12-05T05:05:14.109Z,3.74
2022-12-05T05:06:22.355Z,3.72
2022-12-05T05:07:28.228Z,3.76
2022-12-05T05:08:37.247Z,3.76
2022-12-05T05:09:42.389Z,3.75
2022-12-05T05:11:23.058Z,3.67
2022-12-05T05:12:31.404Z,3.61
2022-12-05T05:13:39.547Z,3.66
2022-12-05T05:14:44.115Z,3.62
2022-12-05T05:15:56.802Z,3.60
2022-12-05T05:17:02.456Z,3.59
2022-12-05T05:18:06.947Z,3.66
2022-12-05T05:19:17.628Z,3.63
2022-12-05T05:20:24.339Z,3.67
2022-12-05T05:21:39.759Z,3.69
2022-12-05T05:22:52.922Z,3.63
2022-12-05T05:23:59.015Z,3.65
2022-12-05T05:25:04.870Z,3.64
2022-12-05T05:26:11.536Z,3.62
2022-12-05T05:27:17.061Z,3.57
2022-12-05T05:28:25.076Z,3.59
2022-12-05T05:29:35.874Z,3.60
2022-12-05T05:30:40.440Z,3.61
2022-12-05T05:31:46.414Z,3.57
2022-12-05T05:32:50.964Z,3.59
2022-12-05T05:33:58.155Z,3.57
2022-12-05T05:35:02.058Z,3.59
2022-12-05T05:36:11.178Z,3.60
2022-12-05T05:37:16.524Z,3.54
2022-12-05T05:38:28.176Z,3.56
2022-12-05T05:39:32.729Z,3.56
2022-12-05T05:40:38.173Z,3.54
2022-12-05T05:41:58.489Z,3.55
2022-12-05T05:43:02.328Z,3.51
2022-12-05T05:44:12.308Z,3.51
2022-12-05T05:45:18.534Z,3.55
2022-12-05T05:46:27.940Z,3.54
2022-12-05T05:47:38.147Z,3.47
2022-12-05T05:48:42.613Z,3.46
2022-12-05T05:49:46.407Z,3.48
2022-12-05T05:50:50.306Z,3.49
2022-12-05T05:51:57.371Z,3.46
2022-12-05T05:53:04.850Z,3.45
2022-12-05T05:54:12.378Z,3.46
2022-12-05T05:55:16.298Z,3.46
2022-12-05T05:56:23.013Z,3.45
2022-12-05T05:57:29.407Z,3.47
2022-12-05T05:58:34.096Z,3.50
2022-12-05T05:59:39.351Z,3.52
2022-12-05T06:00:44.054Z,3.57
2022-12-05T06:01:48.851Z,3.58
2022-12-05T06:02:53.414Z,3.59
2022-12-05T06:03:58.263Z,3.60
2022-12-05T06:05:02.176Z,3.63
2022-12-05T06:06:10.522Z,3.65
2022-12-05T06:07:14.064Z,3.64
2022-12-05T06:08:17.699Z,3.63
2022-12-05T06:09:21.194Z,3.59
2022-12-05T06:10:25.189Z,3.63
2022-12-05T06:11:28.890Z,3.63
2022-12-05T06:12:32.240Z,3.68
2022-12-05T06:13:36.932Z,3.64
2022-12-05T06:14:43.309Z,3.60
2022-12-05T06:15:47.863Z,3.51
2022-12-05T06:16:55.406Z,3.48
2022-12-05T06:18:00.294Z,3.47
2022-12-05T06:19:06.294Z,3.45
2022-12-05T06:20:13.658Z,3.44
2022-12-05T06:21:20.103Z,3.40
2022-12-05T06:22:24.389Z,3.44
2022-12-05T06:23:28.749Z,3.42
2022-12-05T06:24:32.407Z,3.38
2022-12-05T06:25:37.646Z,3.42
2022-12-05T06:26:43.547Z,3.43
2022-12-05T06:27:47.429Z,3.44
2022-12-05T06:28:51.464Z,3.35
2022-12-05T06:29:57.325Z,3.28
2022-12-05T06:31:09.203Z,3.25
2022-12-05T06:32:18.091Z,3.28
2022-12-05T06:33:22.906Z,3.27
2022-12-05T06:34:26.891Z,3.31
2022-12-05T06:35:31.375Z,3.30
2022-12-05T06:36:34.813Z,3.24
2022-12-05T06:37:39.480Z,3.25
2022-12-05T06:38:46.449Z,3.22
2022-12-05T06:39:52.615Z,3.28
2022-12-05T06:40:58.777Z,3.31
2022-12-05T06:42:03.999Z,3.28
2022-12-05T06:43:09.038Z,3.22
2022-12-05T06:44:13.828Z,3.23
2022-12-05T06:45:18.699Z,3.23
2022-12-05T06:46:23.703Z,3.22
2022-12-05T06:47:27.921Z,3.27
2022-12-05T06:48:35.153Z,3.28
2022-12-05T06:49:41.203Z,3.29
2022-12-05T06:50:54.264Z,3.28
2022-12-05T06:52:01.191Z,3.28
2022-12-05T06:53:06.621Z,3.26
2022-12-05T06:54:16.114Z,3.29
2022-12-05T06:55:20.904Z,3.36
2022-12-05T06:56:26.316Z,3.40
2022-12-05T06:57:31.958Z,3.40
2022-12-05T06:58:40.035Z,3.43
2022-12-05T06:59:44.419Z,3.44
2022-12-05T07:01:07.271Z,3.47
2022-12-05T07:02:13.980Z,3.45
2022-12-05T07:03:19.274Z,3.45
2022-12-05T07:04:24.927Z,3.51
2022-12-05T07:05:31.800Z,3.47
2022-12-05T07:06:40.091Z,3.46
2022-12-05T07:07:45.574Z,3.46
2022-12-05T07:08:55.059Z,3.45
2022-12-05T07:09:58.600Z,3.49
2022-12-05T07:11:07.884Z,3.47
2022-12-05T07:12:21.280Z,3.47
2022-12-05T07:13:28.159Z,3.51
2022-12-05T07:14:51.012Z,3.56
2022-12-05T07:15:59.523Z,3.52
2022-12-05T07:17:05.308Z,3.51
2022-12-05T07:18:09.407Z,3.57
2022-12-05T07:19:18.665Z,3.51
2022-12-05T07:20:30.232Z,3.52
2022-12-05T07:21:46.644Z,3.53
2022-12-05T07:22:55.974Z,3.57
2022-12-05T07:24:04.344Z,3.58
2022-12-05T07:25:08.370Z,3.59
2022-12-05T07:26:24.486Z,3.57
2022-12-05T07:27:31.185Z,3.62
2022-12-05T07:28:39.415Z,3.62
2022-12-05T07:29:56.356Z,3.65
2022-12-05T07:31:03.629Z,3.65
2022-12-05T07:32:10.267Z,3.68
2022-12-05T07:33:16.824Z,3.67
2022-12-05T07:34:21.326Z,3.67
2022-12-05T07:35:25.200Z,3.56
2022-12-05T07:36:29.768Z,3.61
2022-12-05T07:37:33.265Z,3.65
2022-12-05T07:38:39.458Z,3.68
2022-12-05T07:39:43.487Z,3.70
2022-12-05T07:40:48.697Z,3.77
2022-12-05T07:41:52.549Z,3.76
2022-12-05T07:42:56.347Z,3.80
2022-12-05T07:44:00.986Z,3.81
2022-12-05T07:45:05.708Z,3.80
2022-12-05T07:46:13.070Z,3.83
2022-12-05T07:47:17.639Z,3.85
2022-12-05T07:48:21.650Z,3.85
2022-12-05T07:49:27.052Z,3.84
2022-12-05T07:50:36.545Z,3.82
2022-12-05T07:51:44.491Z,3.81
2022-12-05T07:52:48.706Z,3.85
2022-12-05T07:53:55.864Z,3.79
2022-12-05T07:55:10.247Z,3.78
2022-12-05T07:56:22.053Z,3.78
2022-12-05T07:57:30.952Z,3.84
2022-12-05T07:58:37.811Z,3.86
2022-12-05T07:59:43.318Z,3.93
2022-12-05T08:00:51.371Z,4.01
2022-12-05T08:01:55.725Z,3.96
2022-12-05T08:03:04.801Z,4.00
2022-12-05T08:04:15.232Z,4.01
2022-12-05T08:05:19.817Z,4.00
2022-12-05T08:06:31.754Z,4.05
2022-12-05T08:07:44.983Z,4.04
2022-12-05T08:08:50.192Z,4.01
2022-12-05T08:09:53.655Z,4.04
2022-12-05T08:10:57.433Z,4.07
2022-12-05T08:12:00.959Z,4.07
2022-12-05T08:13:04.511Z,3.98
2022-12-05T08:14:09.325Z,4.01
2022-12-05T08:15:12.900Z,4.05
2022-12-05T08:16:24.817Z,4.03
2022-12-05T08:17:35.596Z,3.94
2022-12-05T08:18:40.081Z,3.89
2022-12-05T08:19:43.886Z,3.92
2022-12-05T08:20:47.699Z,3.92
2022-12-05T08:21:52.574Z,3.91
2022-12-05T08:22:56.707Z,3.88
2022-12-05T08:24:00.806Z,3.90
2022-12-05T08:25:05.012Z,3.92
2022-12-05T08:26:25.807Z,3.90
2022-12-05T08:27:30.226Z,3.88
2022-12-05T08:28:35.827Z,3.91
2022-12-05T08:29:39.862Z,3.94
2022-12-05T08:30:46.229Z,3.98
2022-12-05T08:31:53.082Z,3.98
2022-12-05T08:32:58.336Z,3.97
2022-12-05T08:34:02.836Z,3.96
2022-12-05T08:35:09.808Z,3.96
2022-12-05T08:36:16.003Z,4.03
2022-12-05T08:37:19.601Z,4.04
2022-12-05T08:38:23.617Z,4.03
2022-12-05T08:39:27.563Z,4.02
2022-12-05T08:40:31.380Z,3.98
2022-12-05T08:41:35.562Z,3.98
2022-12-05T08:42:39.069Z,3.98
2022-12-05T08:43:49.024Z,3.99
2022-12-05T08:44:53.269Z,4.01
2022-12-05T08:46:03.267Z,3.97
2022-12-05T08:47:07.474Z,3.95
2022-12-05T08:48:11.186Z,3.96
2022-12-05T08:49:17.676Z,3.97
2022-12-05T08:50:21.304Z,4.04
2022-12-05T08:51:26.156Z,4.06
2022-12-05T08:52:29.813Z,4.07
2022-12-05T08:53:35.671Z,4.10
2022-12-05T08:54:43.100Z,4.13
2022-12-05T08:55:47.084Z,4.13
2022-12-05T08:56:53.241Z,4.09
2022-12-05T08:57:58.794Z,4.19
2022-12-05T08:59:05.658Z,4.23
2022-12-05T09:00:13.908Z,4.25
2022-12-05T09:01:21.807Z,4.31
2022-12-05T09:02:25.436Z,4.34
2022-12-05T09:03:29.236Z,4.37
2022-12-05T09:04:32.719Z,4.38
2022-12-05T09:05:36.536Z,4.40
2022-12-05T09:06:44.042Z,4.43
2022-12-05T09:07:50.386Z,4.47
2022-12-05T09:09:01.013Z,4.50
2022-12-05T09:10:05.644Z,4.51
2022-12-05T09:11:19.642Z,4.55
2022-12-05T09:12:24.218Z,4.52
2022-12-05T09:13:27.819Z,4.51
2022-12-05T09:14:33.112Z,4.55
2022-12-05T09:15:39.743Z,4.50
2022-12-05T09:16:47.272Z,4.48
2022-12-05T09:17:50.889Z,4.49
2022-12-05T09:18:56.434Z,4.53
2022-12-05T09:19:59.940Z,4.51
2022-12-05T09:21:20.682Z,4.53
2022-12-05T09:22:25.077Z,4.53
2022-12-05T09:23:28.672Z,4.57
2022-12-05T09:24:34.286Z,4.58
2022-12-05T09:25:39.447Z,4.58
2022-12-05T09:26:47.240Z,4.62
2022-12-05T09:27:51.099Z,4.64
2022-12-05T09:28:55.506Z,4.67
2022-12-05T09:29:59.469Z,4.69
2022-12-05T09:31:09.619Z,4.72
2022-12-05T09:32:13.337Z,4.75
2022-12-05T09:33:17.233Z,4.77
2022-12-05T09:34:20.788Z,4.75
2022-12-05T09:35:24.559Z,4.75
2022-12-05T09:36:32.589Z,4.77
2022-12-05T09:37:40.203Z,4.73
2022-12-05T09:38:44.968Z,4.74
2022-12-05T09:39:48.457Z,4.79
2022-12-05T09:41:44.895Z,4.80
2022-12-05T09:43:04.719Z,4.79
2022-12-05T09:44:41.002Z,4.82
2022-12-05T09:46:18.405Z,4.82
2022-12-05T09:48:00.163Z,4.88
2022-12-05T09:49:13.784Z,4.90
2022-12-05T09:50:47.016Z,4.93
2022-12-05T09:51:55.409Z,5.00
2022-12-05T09:53:24.395Z,5.01
2022-12-05T09:54:33.159Z,5.02
2022-12-05T09:56:11.631Z,5.04
2022-12-05T09:57:16.719Z,5.10
2022-12-05T09:58:30.287Z,5.16
2022-12-05T09:59:40.314Z,5.13
2022-12-05T10:00:44.536Z,5.14
2022-12-05T10:02:24.608Z,5.20
2022-12-05T10:03:36.095Z,5.21
2022-12-05T10:05:12.474Z,5.28
2022-12-05T10:06:35.192Z,5.30
2022-12-05T10:07:56.779Z,5.40
2022-12-05T10:09:32.543Z,5.41
2022-12-05T10:11:01.895Z,5.49
2022-12-05T10:12:48.919Z,5.57
2022-12-05T10:14:10.562Z,5.64
2022-12-05T10:15:48.418Z,5.75
2022-12-05T10:17:03.368Z,5.79
2022-12-05T10:18:15.103Z,5.89
2022-12-05T10:19:34.658Z,5.96
2022-12-05T10:20:52.360Z,5.99
2022-12-05T10:22:23.627Z,5.99
2022-12-05T10:23:57.171Z,5.98
2022-12-05T10:25:08.956Z,6.03
2022-12-05T10:26:16.933Z,6.07
2022-12-05T10:27:39.976Z,6.08
2022-12-05T10:29:18.895Z,6.12
2022-12-05T10:30:32.333Z,6.16
2022-12-05T10:31:55.535Z,6.21
2022-12-05T10:33:21.689Z,6.28
2022-12-05T10:34:34.090Z,6.34
2022-12-05T10:35:56.739Z,6.39
2022-12-05T10:37:23.761Z,6.45
2022-12-05T10:38:31.368Z,6.49
2022-12-05T10:39:41.028Z,6.52
2022-12-05T10:40:54.229Z,6.47
2022-12-05T10:41:58.365Z,6.46
2022-12-05T10:43:02.054Z,6.41
2022-12-05T10:44:08.053Z,6.50
2022-12-05T10:45:24.454Z,6.52
2022-12-05T10:46:28.345Z,6.57
2022-12-05T10:47:34.295Z,6.59
2022-12-05T10:48:49.029Z,6.62
2022-12-05T10:49:56.734Z,6.65
2022-12-05T10:51:01.142Z,6.69
2022-12-05T10:52:10.665Z,6.68
2022-12-05T10:53:53.373Z,6.76
2022-12-05T10:55:04.639Z,6.80
2022-12-05T10:56:41.208Z,6.78
2022-12-05T10:58:18.069Z,6.80
2022-12-05T10:59:27.317Z,6.81
2022-12-05T11:00:32.083Z,6.86
2022-12-05T11:01:51.531Z,6.89
2022-12-05T11:03:06.326Z,6.87
2022-12-05T11:04:24.379Z,6.86
2022-12-05T11:05:31.586Z,6.89
2022-12-05T11:06:38.473Z,6.90
2022-12-05T11:07:52.097Z,6.95
2022-12-05T11:09:19.037Z,6.98
2022-12-05T11:10:38.092Z,7.03
2022-12-05T11:11:42.145Z,7.03
2022-12-05T11:12:46.313Z,7.05
2022-12-05T11:14:25.146Z,7.05
2022-12-05T11:15:32.728Z,7.10
2022-12-05T11:16:39.954Z,7.12
2022-12-05T11:17:43.980Z,7.16
2022-12-05T11:18:49.493Z,7.14
2022-12-05T11:19:53.407Z,7.19
2022-12-05T11:21:09.143Z,7.18
2022-12-05T11:22:18.012Z,7.15
2022-12-05T11:23:31.801Z,7.17
2022-12-05T11:24:39.761Z,7.21
2022-12-05T11:25:43.341Z,7.23
2022-12-05T11:26:47.144Z,7.27
2022-12-05T11:27:50.967Z,7.30
2022-12-05T11:28:54.729Z,7.32
2022-12-05T11:30:19.499Z,7.30
2022-12-05T11:31:31.748Z,7.31
2022-12-05T11:32:35.742Z,7.33
2022-12-05T11:33:39.896Z,7.36
2022-12-05T11:35:07.816Z,7.37
2022-12-05T11:36:23.315Z,7.38
2022-12-05T11:37:45.048Z,7.38
2022-12-05T11:38:49.952Z,7.39
2022-12-05T11:39:54.245Z,7.42
2022-12-05T11:41:29.863Z,7.44
2022-12-05T11:43:46.908Z,7.43
2022-12-05T11:45:24.451Z,7.46
2022-12-05T11:47:16.671Z,7.53
2022-12-05T11:48:36.932Z,7.49
2022-12-05T11:50:21.908Z,7.53
2022-12-05T11:51:50.828Z,7.52
2022-12-05T11:53:13.302Z,7.56
2022-12-05T11:55:06.084Z,7.54
2022-12-05T11:56:32.920Z,7.50
2022-12-05T11:58:27.872Z,7.53
2022-12-05T12:00:11.592Z,7.60
2022-12-05T12:01:42.736Z,7.61
2022-12-05T12:03:35.392Z,7.65
2022-12-05T12:05:15.476Z,7.60
2022-12-05T12:06:52.241Z,7.61
2022-12-05T12:08:25.358Z,7.66
2022-12-05T12:09:57.059Z,7.68
2022-12-05T12:11:09.082Z,7.74
2022-12-05T12:12:40.643Z,7.77
2022-12-05T12:14:16.601Z,7.81
2022-12-05T12:16:17.555Z,7.84
2022-12-05T12:17:53.626Z,7.85
2022-12-05T12:19:33.278Z,7.89
2022-12-05T12:21:03.330Z,7.93
2022-12-05T12:22:19.893Z,7.98
2022-12-05T12:24:11.670Z,8.00
2022-12-05T12:25:42.760Z,8.00
2022-12-05T12:27:16.855Z,8.05
2022-12-05T12:29:21.103Z,8.06
2022-12-05T12:30:58.923Z,8.09
2022-12-05T12:32:33.474Z,8.18
2022-12-05T12:34:07.801Z,8.23
2022-12-05T12:35:15.121Z,8.25
2022-12-05T12:36:51.107Z,8.27
2022-12-05T12:38:30.942Z,8.33
2022-12-05T12:39:55.036Z,8.35
2022-12-05T12:42:02.524Z,8.32
2022-12-05T12:45:52.027Z,8.39
2022-12-05T12:47:17.316Z,8.40
2022-12-05T12:49:17.524Z,8.45
2022-12-05T12:50:31.133Z,8.39
2022-12-05T12:51:40.163Z,8.44
2022-12-05T12:53:33.356Z,8.44
2022-12-05T12:55:05.008Z,8.44
2022-12-05T12:57:23.876Z,8.45
2022-12-05T12:59:24.900Z,8.49
2022-12-05T13:01:17.927Z,8.51
2022-12-05T13:02:51.579Z,8.49
2022-12-05T13:04:07.998Z,8.47
2022-12-05T13:05:36.423Z,8.49
2022-12-05T13:06:55.262Z,8.47
2022-12-05T13:08:21.724Z,8.45
2022-12-05T13:09:46.173Z,8.47
2022-12-05T13:11:05.542Z,8.45
2022-12-05T13:12:17.464Z,8.47
2022-12-05T13:13:27.848Z,8.45
2022-12-05T13:14:35.396Z,8.43
2022-12-05T13:15:58.606Z,8.45
2022-12-05T13:17:05.579Z,8.45
2022-12-05T13:18:19.686Z,8.44
2022-12-05T13:19:47.989Z,8.47
2022-12-05T13:20:59.116Z,8.47
2022-12-05T13:22:04.811Z,8.49
2022-12-05T13:23:15.682Z,8.50
2022-12-05T13:24:26.500Z,8.51
2022-12-05T13:25:36.055Z,8.51
2022-12-05T13:26:49.489Z,8.51
2022-12-05T13:28:03.702Z,8.54
2022-12-05T13:29:08.216Z,8.57
2022-12-05T13:30:19.900Z,8.56
2022-12-05T13:31:40.916Z,8.60
2022-12-05T13:32:55.077Z,8.59
2022-12-05T13:33:58.806Z,8.60
2022-12-05T13:35:41.267Z,8.60
2022-12-05T13:37:03.253Z,8.60
2022-12-05T13:38:40.704Z,8.54
2022-12-05T13:40:13.865Z,8.54
2022-12-05T13:41:39.811Z,8.50
2022-12-05T13:42:45.129Z,8.48
2022-12-05T13:44:05.512Z,8.46
2022-12-05T13:45:20.720Z,8.47
2022-12-05T13:46:35.632Z,8.46
2022-12-05T13:47:59.199Z,8.46
2022-12-05T13:49:33.616Z,8.46
2022-12-05T13:51:23.597Z,8.46
2022-12-05T13:52:32.572Z,8.43
2022-12-05T13:53:50.651Z,8.46
2022-12-05T13:55:35.933Z,8.47
2022-12-05T13:56:54.931Z,8.46
2022-12-05T13:58:04.275Z,8.46
2022-12-05T13:59:11.459Z,8.47
2022-12-05T14:00:15.794Z,8.46
2022-12-05T14:01:35.474Z,8.46
2022-12-05T14:02:44.032Z,8.47
2022-12-05T14:03:47.741Z,8.45
2022-12-05T14:04:51.621Z,8.43
2022-12-05T14:05:55.636Z,8.41
2022-12-05T14:07:00.767Z,8.36
2022-12-05T14:08:24.700Z,8.38
2022-12-05T14:09:49.092Z,8.39
2022-12-05T14:10:52.451Z,8.40
2022-12-05T14:12:12.557Z,8.42
2022-12-05T14:13:16.300Z,8.39
2022-12-05T14:14:57.188Z,8.38
2022-12-05T14:16:24.481Z,8.35
2022-12-05T14:17:41.614Z,8.33
2022-12-05T14:18:53.026Z,8.34
2022-12-05T14:20:43.226Z,8.34
2022-12-05T14:22:42.744Z,8.33
2022-12-05T14:24:25.505Z,8.29
2022-12-05T14:26:06.997Z,8.33
2022-12-05T14:27:42.117Z,8.32
2022-12-05T14:29:04.013Z,8.32
2022-12-05T14:30:20.058Z,8.33
2022-12-05T14:31:42.549Z,8.34
2022-12-05T14:32:46.662Z,8.34
2022-12-05T14:34:26.568Z,8.36
2022-12-05T14:35:42.368Z,8.38
2022-12-05T14:37:15.370Z,8.41
2022-12-05T14:38:34.331Z,8.43
2022-12-05T14:39:55.328Z,8.43
2022-12-05T14:41:48.092Z,8.45
2022-12-05T14:43:10.240Z,8.45
2022-12-05T14:44:21.178Z,8.45
2022-12-05T14:45:48.274Z,8.47
2022-12-05T14:46:52.309Z,8.47
2022-12-05T14:48:03.352Z,8.49
2022-12-05T14:49:52.805Z,8.51
2022-12-05T14:50:59.140Z,8.51
2022-12-05T14:52:20.673Z,8.52
2022-12-05T14:53:40.764Z,8.53
2022-12-05T14:54:44.379Z,8.54
2022-12-05T14:56:16.596Z,8.56
2022-12-05T14:57:21.444Z,8.53
2022-12-05T14:58:50.931Z,8.58
2022-12-05T15:00:10.355Z,8.60
2022-12-05T15:01:31.510Z,8.57
2022-12-05T15:02:46.980Z,8.60
2022-12-05T15:03:59.447Z,8.59
2022-12-05T15:05:30.532Z,8.61
2022-12-05T15:07:10.934Z,8.62
2022-12-05T15:08:22.279Z,8.62
2022-12-05T15:09:58.678Z,8.64
2022-12-05T15:11:04.516Z,8.64
2022-12-05T15:12:19.962Z,8.64
2022-12-05T15:13:30.853Z,8.62
2022-12-05T15:15:08.520Z,8.63
2022-12-05T15:16:22.911Z,8.62
2022-12-05T15:18:00.304Z,8.62
2022-12-05T15:19:17.783Z,8.61
2022-12-05T15:21:02.834Z,8.61
2022-12-05T15:22:16.423Z,8.59
2022-12-05T15:24:02.824Z,8.59
2022-12-05T15:25:36.518Z,8.59
2022-12-05T15:26:59.000Z,8.56
2022-12-05T15:28:19.769Z,8.55
2022-12-05T15:29:25.985Z,8.55
2022-12-05T15:30:32.733Z,8.55
2022-12-05T15:31:48.435Z,8.53
2022-12-05T15:32:59.038Z,8.51
2022-12-05T15:34:15.592Z,8.49
2022-12-05T15:35:21.013Z,8.46
2022-12-05T15:36:36.987Z,8.45
2022-12-05T15:37:53.997Z,8.43
2022-12-05T15:38:57.909Z,8.37
2022-12-05T15:40:14.727Z,8.29
2022-12-05T15:41:18.602Z,8.30
2022-12-05T15:42:49.580Z,8.28
2022-12-05T15:44:01.278Z,8.29
2022-12-05T15:45:27.686Z,8.28
2022-12-05T15:46:32.184Z,8.21
2022-12-05T15:47:36.171Z,8.11
2022-12-05T15:48:39.692Z,8.04
2022-12-05T15:49:43.431Z,8.06
2022-12-05T15:50:54.063Z,7.95
2022-12-05T15:52:30.728Z,8.02
2022-12-05T15:53:51.416Z,7.95
2022-12-05T15:54:58.610Z,8.00
2022-12-05T15:56:31.704Z,8.04
2022-12-05T15:58:21.687Z,8.07
2022-12-05T15:59:46.574Z,8.07
2022-12-05T16:01:01.503Z,8.10
2022-12-05T16:02:21.270Z,8.10
2022-12-05T16:03:34.434Z,8.10
2022-12-05T16:05:03.512Z,8.09
2022-12-05T16:06:37.444Z,8.11
2022-12-05T16:07:41.211Z,8.11
2022-12-05T16:08:48.280Z,8.09
2022-12-05T16:09:59.341Z,8.11
2022-12-05T16:11:13.941Z,8.11
2022-12-05T16:12:34.597Z,8.10
2022-12-05T16:14:05.793Z,8.09
2022-12-05T16:15:28.796Z,8.10
2022-12-05T16:16:37.400Z,8.08
2022-12-05T16:17:46.849Z,8.07
2022-12-05T16:18:56.940Z,8.07
2022-12-05T16:20:18.907Z,8.06
2022-12-05T16:21:46.274Z,8.02
2022-12-05T16:22:55.397Z,7.99
2022-12-05T16:24:21.767Z,7.95
2022-12-05T16:26:10.449Z,7.96
2022-12-05T16:27:16.878Z,7.93
2022-12-05T16:28:24.130Z,7.93
2022-12-05T16:29:35.135Z,7.86
2022-12-05T16:30:41.436Z,7.86
2022-12-05T16:31:45.767Z,7.85
2022-12-05T16:33:02.764Z,7.87
2022-12-05T16:34:15.236Z,7.86
2022-12-05T16:35:39.943Z,7.85
2022-12-05T16:36:49.852Z,7.85
2022-12-05T16:38:21.294Z,7.80
2022-12-05T16:39:28.490Z,7.75
2022-12-05T16:40:32.372Z,7.77
2022-12-05T16:41:39.599Z,7.79
2022-12-05T16:42:43.726Z,7.79
2022-12-05T16:43:54.327Z,7.77
2022-12-05T16:45:03.793Z,7.73
2022-12-05T16:46:13.574Z,7.68
2022-12-05T16:47:26.424Z,7.64
2022-12-05T16:48:32.451Z,7.66
2022-12-05T16:49:42.715Z,7.65
2022-12-05T16:50:52.655Z,7.65
2022-12-05T16:52:04.131Z,7.66
2022-12-05T16:53:09.489Z,7.66
2022-12-05T16:54:14.975Z,7.66
2022-12-05T16:55:18.830Z,7.67
2022-12-05T16:56:31.122Z,7.66
2022-12-05T16:57:34.999Z,7.66
2022-12-05T16:58:38.662Z,7.64
2022-12-05T16:59:44.231Z,7.64
2022-12-05T17:00:48.135Z,7.64
2022-12-05T17:01:51.926Z,7.63
2022-12-05T17:03:18.417Z,7.62
2022-12-05T17:04:21.065Z,7.58
2022-12-05T17:05:31.590Z,7.57
2022-12-05T17:06:36.069Z,7.56
2022-12-05T17:07:39.939Z,7.55
2022-12-05T17:08:44.177Z,7.54
2022-12-05T17:09:48.909Z,7.53
2022-12-05T17:10:53.546Z,7.52
2022-12-05T17:12:14.236Z,7.51
2022-12-05T17:13:20.138Z,7.50
2022-12-05T17:14:24.322Z,7.49
2022-12-05T17:15:28.371Z,7.47
2022-12-05T17:16:34.802Z,7.50
2022-12-05T17:17:38.508Z,7.45
2022-12-05T17:18:42.275Z,7.46
2022-12-05T17:19:45.780Z,7.46
2022-12-05T17:20:56.437Z,7.43
2022-12-05T17:22:00.560Z,7.42
2022-12-05T17:23:04.299Z,7.41
2022-12-05T17:24:19.518Z,7.41
2022-12-05T17:25:37.295Z,7.37
2022-12-05T17:26:41.118Z,7.36
2022-12-05T17:27:44.932Z,7.35
2022-12-05T17:28:50.729Z,7.36